Time;durP1;ratioP1;P1;durP2;ratioP2;P2;SDS_P1;SDS_P2;PMS_P1;PMS_P2;Temp;Humidity;BMP_temperature;BMP_pressure;BME280_temperature;BME280_humidity;BME280_pressure;Samples;Min_cycle;Max_cycle;Signal;HPM_P1;HPM_P2
2023/08/11 00:02:17;;;;;;;6.70;3.40;;;;;;;;;;5034065;28;20021;-85
2023/08/11 00:04:43;;;;;;;7.93;3.90;;;;;;;;;;5049990;28;20552;-84
2023/08/11 00:07:09;;;;;;;5.50;3.25;;;;;;;;;;5072646;28;20059;-84
2023/08/11 00:09:34;;;;;;;5.78;3.80;;;;;;;;;;5054598;28;20098;-84
2023/08/11 00:11:59;;;;;;;4.97;3.50;;;;;;;;;;5072482;28;20021;-84
2023/08/11 00:14:26;;;;;;;6.82;3.72;;;;;;;;;;5071968;28;20044;-85
2023/08/11 00:16:52;;;;;;;6.00;3.55;;;;;;;;;;5052940;28;20096;-84
2023/08/11 00:19:17;;;;;;;6.55;3.55;;;;;;;;;;5052742;28;20127;-83
2023/08/11 00:21:43;;;;;;;5.13;3.63;;;;;;;;;;5052680;28;20032;-84
2023/08/11 00:24:08;;;;;;;5.05;3.40;;;;;;;;;;5053015;28;20086;-85
2023/08/11 00:26:35;;;;;;;4.22;3.40;;;;;;;;;;5053022;28;20024;-84
2023/08/11 00:29:00;;;;;;;5.25;3.22;;;;;;;;;;5070419;28;20043;-84
2023/08/11 00:31:25;;;;;;;5.20;3.47;;;;;;;;;;5045434;28;20017;-84
2023/08/11 00:33:51;;;;;;;5.53;3.47;;;;;;;;;;5063047;28;20410;-84
2023/08/11 00:36:17;;;;;;;6.80;3.25;;;;;;;;;;5054022;28;20069;-84
2023/08/11 00:38:43;;;;;;;5.65;3.65;;;;;;;;;;5061239;28;20040;-84
2023/08/11 00:41:08;;;;;;;5.93;3.47;;;;;;;;;;5067430;28;20031;-84
2023/08/11 00:43:34;;;;;;;7.60;3.65;;;;;;;;;;5060972;28;20527;-85
2023/08/11 00:46:06;;;;;;;6.35;3.88;;;;;;;;;;5066657;28;20020;-84
2023/08/11 00:48:32;;;;;;;6.82;3.42;;;;;;;;;;5037006;28;20071;-84
2023/08/11 00:50:58;;;;;;;5.20;3.45;;;;;;;;;;5066282;28;20155;-84
2023/08/11 00:53:24;;;;;;;4.72;3.05;;;;;;;;;;5065351;28;20035;-84
2023/08/11 00:55:50;;;;;;;5.93;3.70;;;;;;;;;;5035242;28;20043;-84
2023/08/11 00:58:16;;;;;;;5.90;3.72;;;;;;;;;;5049145;28;20407;-84
2023/08/11 01:00:41;;;;;;;7.53;3.75;;;;;;;;;;5038222;28;20051;-84
2023/08/11 01:03:07;;;;;;;5.78;3.90;;;;;;;;;;5064599;28;20040;-84
2023/08/11 01:05:33;;;;;;;5.20;3.70;;;;;;;;;;5038842;28;20116;-84
2023/08/11 01:08:04;;;;;;;4.90;3.30;;;;;;;;;;5067511;28;20032;-84
2023/08/11 01:10:38;;;;;;;4.32;3.08;;;;;;;;;;5044969;28;20029;-84
2023/08/11 01:13:12;;;;;;;5.60;3.10;;;;;;;;;;5050492;28;20085;-84
2023/08/11 01:15:39;;;;;;;4.32;3.10;;;;;;;;;;5037206;28;20044;-84
2023/08/11 01:18:05;;;;;;;4.57;3.30;;;;;;;;;;5037520;28;20079;-84
2023/08/11 01:20:31;;;;;;;7.53;3.28;;;;;;;;;;5038987;28;20060;-84
2023/08/11 01:22:57;;;;;;;5.28;3.15;;;;;;;;;;5054929;28;20032;-84
2023/08/11 01:25:23;;;;;;;7.28;3.53;;;;;;;;;;5055064;28;20029;-84
2023/08/11 01:27:55;;;;;;;5.93;3.33;;;;;;;;;;5046615;28;20483;-85
2023/08/11 01:30:20;;;;;;;6.28;3.60;;;;;;;;;;5053477;28;20442;-84
2023/08/11 01:32:46;;;;;;;9.00;3.53;;;;;;;;;;5079703;28;20066;-85
2023/08/11 01:35:12;;;;;;;6.25;3.95;;;;;;;;;;5090007;28;20482;-84
2023/08/11 01:37:38;;;;;;;7.47;4.00;;;;;;;;;;5084103;28;20059;-84
2023/08/11 01:40:10;;;;;;;6.25;3.67;;;;;;;;;;5066743;28;20051;-85
2023/08/11 01:42:42;;;;;;;8.60;4.03;;;;;;;;;;5073227;28;20028;-85
2023/08/11 01:45:08;;;;;;;5.10;3.55;;;;;;;;;;5068522;28;20024;-85
2023/08/11 01:47:34;;;;;;;5.80;3.72;;;;;;;;;;5071967;28;20375;-85
2023/08/11 01:50:00;;;;;;;7.25;4.00;;;;;;;;;;5058519;28;20445;-83
2023/08/11 01:52:25;;;;;;;8.02;4.30;;;;;;;;;;5064986;28;20028;-84
2023/08/11 01:54:51;;;;;;;8.45;4.07;;;;;;;;;;5082893;28;20054;-84
2023/08/11 01:57:16;;;;;;;7.95;3.88;;;;;;;;;;5054661;28;20052;-84
2023/08/11 01:59:42;;;;;;;5.32;3.80;;;;;;;;;;5081864;28;20036;-84
2023/08/11 02:02:08;;;;;;;6.15;3.78;;;;;;;;;;5051281;28;20028;-84
2023/08/11 02:04:34;;;;;;;6.85;4.15;;;;;;;;;;5049596;28;20062;-83
2023/08/11 02:06:59;;;;;;;7.57;4.45;;;;;;;;;;5045513;28;20181;-84
2023/08/11 02:09:25;;;;;;;5.10;3.85;;;;;;;;;;5071995;28;20039;-83
2023/08/11 02:11:51;;;;;;;5.40;3.88;;;;;;;;;;5089667;28;20402;-84
2023/08/11 02:14:16;;;;;;;5.43;3.75;;;;;;;;;;5055296;28;20056;-84
2023/08/11 02:16:42;;;;;;;6.93;4.00;;;;;;;;;;5073420;28;20059;-84
2023/08/11 02:19:08;;;;;;;4.85;3.65;;;;;;;;;;5059485;28;20043;-84
2023/08/11 02:21:37;;;;;;;4.47;3.50;;;;;;;;;;5073972;28;20024;-83
2023/08/11 02:24:03;;;;;;;6.15;3.78;;;;;;;;;;5076649;28;20129;-84
2023/08/11 02:26:28;;;;;;;7.30;3.67;;;;;;;;;;5071528;28;20024;-84
2023/08/11 02:28:54;;;;;;;5.38;3.90;;;;;;;;;;5069012;28;20039;-83
2023/08/11 02:31:19;;;;;;;6.43;4.18;;;;;;;;;;5089934;28;20052;-84
2023/08/11 02:33:45;;;;;;;8.43;5.05;;;;;;;;;;5058092;28;20114;-83
2023/08/11 02:36:11;;;;;;;8.30;5.30;;;;;;;;;;5047592;28;20384;-83
2023/08/11 02:38:36;;;;;;;11.43;5.00;;;;;;;;;;5063732;28;20511;-83
2023/08/11 02:41:03;;;;;;;7.82;5.47;;;;;;;;;;5064863;28;20025;-83
2023/08/11 02:43:28;;;;;;;9.98;5.53;;;;;;;;;;5082863;28;20036;-83
2023/08/11 02:45:54;;;;;;;9.35;5.63;;;;;;;;;;5078417;28;20035;-83
2023/08/11 02:48:19;;;;;;;10.50;5.32;;;;;;;;;;5086561;28;20028;-84
2023/08/11 02:50:45;;;;;;;10.20;5.30;;;;;;;;;;5039450;28;20486;-84
2023/08/11 02:53:10;;;;;;;6.22;4.47;;;;;;;;;;5051825;28;20411;-83
2023/08/11 02:55:36;;;;;;;8.07;4.00;;;;;;;;;;5027641;28;20031;-84
2023/08/11 02:58:01;;;;;;;5.88;3.75;;;;;;;;;;5087337;28;20031;-83
2023/08/11 03:00:28;;;;;;;5.75;3.50;;;;;;;;;;5070994;28;20119;-84
2023/08/11 03:02:54;;;;;;;7.05;3.80;;;;;;;;;;5041934;28;20096;-84
2023/08/11 03:05:19;;;;;;;4.88;3.28;;;;;;;;;;5087289;28;20024;-84
2023/08/11 03:07:49;;;;;;;5.55;3.47;;;;;;;;;;5055174;28;20067;-84
2023/08/11 03:10:15;;;;;;;4.57;3.50;;;;;;;;;;5022166;28;20052;-83
2023/08/11 03:12:42;;;;;;;5.50;3.13;;;;;;;;;;5038098;28;20036;-83
2023/08/11 03:15:08;;;;;;;6.07;3.40;;;;;;;;;;5072314;28;20105;-84
2023/08/11 03:17:35;;;;;;;4.53;2.80;;;;;;;;;;5038277;28;20035;-83
2023/08/11 03:20:01;;;;;;;4.78;3.25;;;;;;;;;;5038229;28;20510;-84
2023/08/11 03:22:27;;;;;;;5.03;3.03;;;;;;;;;;5039674;28;20087;-84
2023/08/11 03:24:53;;;;;;;5.47;3.42;;;;;;;;;;5040993;28;20048;-84
2023/08/11 03:27:19;;;;;;;5.07;3.22;;;;;;;;;;5053384;28;20032;-86
2023/08/11 03:29:44;;;;;;;4.03;3.20;;;;;;;;;;5053321;28;20021;-83
2023/08/11 03:32:11;;;;;;;4.78;3.03;;;;;;;;;;5053021;28;20032;-84
2023/08/11 03:34:37;;;;;;;4.97;3.40;;;;;;;;;;5036793;28;20020;-84
2023/08/11 03:37:03;;;;;;;9.32;4.95;;;;;;;;;;5053463;28;20048;-86
2023/08/11 03:39:28;;;;;;;5.47;3.80;;;;;;;;;;5043300;28;20112;-84
2023/08/11 03:41:56;;;;;;;4.35;3.13;;;;;;;;;;5017704;28;20066;-85
2023/08/11 03:44:22;;;;;;;4.82;3.22;;;;;;;;;;5020719;28;20032;-86
2023/08/11 03:46:48;;;;;;;4.47;3.10;;;;;;;;;;5037376;28;20036;-84
2023/08/11 03:49:14;;;;;;;5.57;3.78;;;;;;;;;;5036841;28;20031;-84
2023/08/11 03:51:41;;;;;;;3.90;3.03;;;;;;;;;;5049543;28;20127;-85
2023/08/11 03:54:06;;;;;;;6.50;3.55;;;;;;;;;;5053466;28;20460;-85
2023/08/11 03:56:35;;;;;;;4.60;3.50;;;;;;;;;;5036853;28;20074;-84
2023/08/11 03:59:01;;;;;;;7.63;3.80;;;;;;;;;;5020598;28;20028;-84
2023/08/11 04:01:27;;;;;;;5.88;3.55;;;;;;;;;;5037028;28;20114;-84
2023/08/11 04:03:53;;;;;;;5.85;3.15;;;;;;;;;;5036263;28;20032;-84
2023/08/11 04:06:19;;;;;;;4.45;3.20;;;;;;;;;;5055839;28;20024;-84
2023/08/11 04:08:44;;;;;;;6.57;3.65;;;;;;;;;;5046285;28;20111;-84
2023/08/11 04:11:10;;;;;;;4.93;3.67;;;;;;;;;;5048183;28;20028;-84
2023/08/11 04:13:35;;;;;;;5.50;3.90;;;;;;;;;;5045932;28;20397;-85
2023/08/11 04:16:01;;;;;;;5.90;3.75;;;;;;;;;;5081489;28;20029;-84
2023/08/11 04:18:26;;;;;;;5.50;3.30;;;;;;;;;;5036222;28;20112;-83
2023/08/11 04:20:52;;;;;;;4.65;3.63;;;;;;;;;;5047762;28;20025;-84
2023/08/11 04:23:18;;;;;;;6.63;3.85;;;;;;;;;;5046242;28;20036;-84
2023/08/11 04:25:47;;;;;;;4.97;3.90;;;;;;;;;;5037815;28;20029;-85
2023/08/11 04:28:14;;;;;;;6.57;3.67;;;;;;;;;;5057260;28;20379;-85
2023/08/11 04:30:40;;;;;;;3.97;3.20;;;;;;;;;;5031516;28;20470;-85
2023/08/11 04:33:15;;;;;;;5.28;3.88;;;;;;;;;;5056826;28;20031;-85
2023/08/11 04:35:44;;;;;;;5.38;3.80;;;;;;;;;;5046672;28;20040;-84
2023/08/11 04:38:13;;;;;;;5.53;3.60;;;;;;;;;;5061370;28;20111;-84
2023/08/11 04:40:41;;;;;;;6.75;3.25;;;;;;;;;;5051120;28;20519;-84
2023/08/11 04:43:09;;;;;;;4.95;3.05;;;;;;;;;;5035836;28;20066;-84
2023/08/11 04:45:41;;;;;;;6.43;3.53;;;;;;;;;;5049309;28;20039;-83
2023/08/11 04:48:07;;;;;;;5.32;3.50;;;;;;;;;;5045765;28;20032;-84
2023/08/11 04:50:35;;;;;;;5.13;3.60;;;;;;;;;;5048505;28;20020;-85
2023/08/11 04:53:01;;;;;;;4.78;3.83;;;;;;;;;;5045737;28;20042;-85
2023/08/11 04:55:26;;;;;;;5.40;4.10;;;;;;;;;;5053461;28;20407;-85
2023/08/11 04:57:52;;;;;;;8.90;4.45;;;;;;;;;;5039702;28;20033;-85
2023/08/11 05:00:18;;;;;;;11.82;5.25;;;;;;;;;;5022942;28;20021;-84
2023/08/11 05:02:44;;;;;;;4.80;3.92;;;;;;;;;;5062135;28;20557;-83
2023/08/11 05:05:11;;;;;;;5.93;4.57;;;;;;;;;;5037715;28;20036;-84
2023/08/11 05:07:36;;;;;;;7.22;4.35;;;;;;;;;;5076200;28;20112;-84
2023/08/11 05:10:02;;;;;;;6.30;4.80;;;;;;;;;;5051404;28;20111;-84
2023/08/11 05:12:28;;;;;;;7.07;4.60;;;;;;;;;;5055257;28;20040;-84
2023/08/11 05:14:53;;;;;;;6.53;4.50;;;;;;;;;;5042930;28;20139;-85
2023/08/11 05:17:18;;;;;;;6.03;4.28;;;;;;;;;;5051387;28;20028;-85
2023/08/11 05:19:44;;;;;;;6.88;4.80;;;;;;;;;;5058113;28;20020;-83
2023/08/11 05:22:10;;;;;;;5.10;4.28;;;;;;;;;;5045196;28;20052;-81
2023/08/11 05:24:36;;;;;;;5.55;4.57;;;;;;;;;;5068056;28;20038;-84
2023/08/11 05:27:01;;;;;;;5.72;4.15;;;;;;;;;;5055865;28;20035;-84
2023/08/11 05:29:27;;;;;;;5.35;4.47;;;;;;;;;;5071487;28;20581;-84
2023/08/11 05:31:52;;;;;;;5.05;4.30;;;;;;;;;;5088905;28;20126;-85
2023/08/11 05:34:18;;;;;;;6.35;4.70;;;;;;;;;;5084245;28;20029;-84
2023/08/11 05:36:43;;;;;;;7.07;4.80;;;;;;;;;;5060746;28;20162;-85
2023/08/11 05:39:10;;;;;;;7.93;4.97;;;;;;;;;;5037678;28;20116;-85
2023/08/11 05:41:36;;;;;;;5.93;5.05;;;;;;;;;;5052395;28;20062;-85
2023/08/11 05:44:02;;;;;;;5.60;4.65;;;;;;;;;;5045701;28;20032;-84
2023/08/11 05:46:30;;;;;;;6.05;4.60;;;;;;;;;;5063622;28;20577;-84
2023/08/11 05:48:56;;;;;;;8.70;4.80;;;;;;;;;;5080678;28;20020;-85
2023/08/11 05:51:21;;;;;;;6.80;4.95;;;;;;;;;;5046849;28;20091;-85
2023/08/11 05:53:47;;;;;;;8.07;5.10;;;;;;;;;;5035899;28;20067;-84
2023/08/11 05:56:12;;;;;;;7.25;4.78;;;;;;;;;;5059372;28;20024;-84
2023/08/11 05:58:38;;;;;;;5.75;4.65;;;;;;;;;;5055898;28;20036;-84
2023/08/11 06:01:03;;;;;;;6.25;4.90;;;;;;;;;;5057872;28;20044;-84
2023/08/11 06:03:30;;;;;;;5.80;4.47;;;;;;;;;;5075950;28;20127;-84
2023/08/11 06:06:00;;;;;;;5.75;5.13;;;;;;;;;;5051353;28;20028;-84
2023/08/11 06:08:25;;;;;;;5.43;4.72;;;;;;;;;;5066515;28;20047;-85
2023/08/11 06:10:51;;;;;;;7.22;4.60;;;;;;;;;;5054340;28;20024;-85
2023/08/11 06:13:16;;;;;;;7.97;5.38;;;;;;;;;;5072972;28;20031;-85
2023/08/11 06:15:42;;;;;;;6.78;4.97;;;;;;;;;;5034335;28;20068;-85
2023/08/11 06:18:07;;;;;;;6.30;5.53;;;;;;;;;;5056431;28;20086;-85
2023/08/11 06:20:33;;;;;;;7.80;5.60;;;;;;;;;;5060820;28;20074;-85
2023/08/11 06:22:59;;;;;;;8.27;6.05;;;;;;;;;;5090818;28;20039;-85
2023/08/11 06:25:24;;;;;;;8.25;6.57;;;;;;;;;;5060754;28;20116;-84
2023/08/11 06:27:50;;;;;;;10.88;7.22;;;;;;;;;;5060015;28;20039;-84
2023/08/11 06:30:15;;;;;;;9.75;6.95;;;;;;;;;;5071695;28;20034;-85
2023/08/11 06:32:43;;;;;;;11.23;6.38;;;;;;;;;;5087299;28;20483;-84
2023/08/11 06:35:08;;;;;;;8.10;6.00;;;;;;;;;;5043231;28;20028;-84
2023/08/11 06:37:34;;;;;;;7.72;5.25;;;;;;;;;;5037300;28;20028;-84
2023/08/11 06:39:59;;;;;;;6.78;5.60;;;;;;;;;;5053564;28;20028;-85
2023/08/11 06:42:25;;;;;;;9.30;6.00;;;;;;;;;;5036603;28;20043;-84
2023/08/11 06:45:02;;;;;;;7.95;6.38;;;;;;;;;;5057748;28;20028;-85
2023/08/11 06:47:29;;;;;;;6.30;5.60;;;;;;;;;;5063330;28;20039;-85
2023/08/11 06:49:54;;;;;;;7.85;6.00;;;;;;;;;;5063581;28;20121;-85
2023/08/11 06:52:20;;;;;;;8.43;6.45;;;;;;;;;;5053143;28;20028;-85
2023/08/11 06:54:45;;;;;;;7.95;6.07;;;;;;;;;;5046700;28;20051;-85
2023/08/11 06:57:11;;;;;;;8.13;6.07;;;;;;;;;;5041501;28;20035;-84
2023/08/11 06:59:38;;;;;;;7.28;5.65;;;;;;;;;;5057645;28;20399;-85
2023/08/11 07:02:03;;;;;;;7.88;6.47;;;;;;;;;;5062585;28;20399;-84
2023/08/11 07:04:29;;;;;;;10.50;6.78;;;;;;;;;;5053003;28;20028;-84
2023/08/11 07:06:55;;;;;;;7.85;6.20;;;;;;;;;;5059385;28;20090;-85
2023/08/11 07:09:21;;;;;;;6.57;5.88;;;;;;;;;;5069827;28;20031;-85
2023/08/11 07:11:46;;;;;;;9.68;6.50;;;;;;;;;;5077565;28;20040;-83
2023/08/11 07:14:11;;;;;;;7.03;6.28;;;;;;;;;;5088015;28;20060;-85
2023/08/11 07:16:37;;;;;;;7.82;6.22;;;;;;;;;;5088936;28;20115;-85
2023/08/11 07:19:20;;;;;;;9.40;6.43;;;;;;;;;;5055748;27;20497;-84
2023/08/11 07:21:46;;;;;;;8.27;6.15;;;;;;;;;;5047252;28;20112;-83
2023/08/11 07:24:11;;;;;;;8.05;5.68;;;;;;;;;;5030237;28;20512;-84
2023/08/11 07:26:37;;;;;;;8.15;6.18;;;;;;;;;;5046844;28;20481;-85
2023/08/11 07:29:02;;;;;;;7.72;5.97;;;;;;;;;;5047550;28;20412;-85
2023/08/11 07:31:28;;;;;;;7.80;5.97;;;;;;;;;;5047025;28;20127;-84
2023/08/11 07:33:53;;;;;;;9.32;6.47;;;;;;;;;;5046571;28;20392;-85
2023/08/11 07:36:20;;;;;;;9.90;6.90;;;;;;;;;;5014295;28;20492;-84
2023/08/11 07:38:45;;;;;;;14.82;6.72;;;;;;;;;;5029849;28;20032;-84
2023/08/11 07:41:11;;;;;;;11.48;7.15;;;;;;;;;;5046912;28;20026;-84
2023/08/11 07:43:36;;;;;;;10.00;6.18;;;;;;;;;;5046279;28;20021;-85
2023/08/11 07:46:03;;;;;;;12.75;7.32;;;;;;;;;;5046908;28;20120;-85
2023/08/11 07:48:28;;;;;;;7.82;6.82;;;;;;;;;;5011224;28;20489;-85
2023/08/11 07:50:54;;;;;;;6.22;5.30;;;;;;;;;;5030039;28;20041;-86
2023/08/11 07:53:19;;;;;;;8.02;5.75;;;;;;;;;;5047688;28;20369;-86
2023/08/11 07:55:45;;;;;;;8.25;5.63;;;;;;;;;;5046356;28;20052;-85
2023/08/11 07:58:10;;;;;;;8.43;6.13;;;;;;;;;;5045648;28;20029;-82
2023/08/11 08:00:36;;;;;;;9.23;5.85;;;;;;;;;;5047565;28;20044;-85
2023/08/11 08:03:01;;;;;;;9.40;5.80;;;;;;;;;;5045608;28;20053;-85
2023/08/11 08:05:27;;;;;;;9.95;6.60;;;;;;;;;;5045968;28;20376;-85
2023/08/11 08:07:52;;;;;;;12.35;6.95;;;;;;;;;;5029553;28;20496;-84
2023/08/11 08:10:20;;;;;;;8.43;5.95;;;;;;;;;;5035768;28;20052;-85
2023/08/11 08:12:45;;;;;;;9.57;6.20;;;;;;;;;;5045621;28;21605;-86
2023/08/11 08:15:11;;;;;;;6.97;6.28;;;;;;;;;;5046076;28;20033;-84
2023/08/11 08:17:37;;;;;;;10.82;6.30;;;;;;;;;;5045335;28;20060;-84
2023/08/11 08:20:04;;;;;;;9.07;6.13;;;;;;;;;;5046662;28;20025;-84
2023/08/11 08:22:30;;;;;;;8.57;5.40;;;;;;;;;;5045887;28;20031;-84
2023/08/11 08:24:56;;;;;;;6.90;5.70;;;;;;;;;;5029164;28;20435;-84
2023/08/11 08:27:24;;;;;;;7.90;5.90;;;;;;;;;;5012380;28;20029;-85
2023/08/11 08:29:53;;;;;;;8.25;6.15;;;;;;;;;;5036797;28;20030;-84
2023/08/11 08:32:21;;;;;;;8.77;6.00;;;;;;;;;;5032492;28;20104;-85
2023/08/11 08:34:48;;;;;;;8.05;5.47;;;;;;;;;;5048802;28;20416;-85
2023/08/11 08:37:13;;;;;;;9.13;5.75;;;;;;;;;;5015951;28;20043;-85
2023/08/11 08:39:39;;;;;;;9.55;5.30;;;;;;;;;;5031916;28;20124;-85
2023/08/11 08:42:04;;;;;;;5.95;4.80;;;;;;;;;;5012485;28;20018;-85
2023/08/11 08:44:30;;;;;;;6.32;4.57;;;;;;;;;;5031893;28;20042;-85
2023/08/11 08:46:55;;;;;;;9.10;5.05;;;;;;;;;;5032130;28;20143;-85
2023/08/11 08:49:21;;;;;;;8.35;5.10;;;;;;;;;;5016128;28;20094;-85
2023/08/11 08:51:47;;;;;;;8.45;4.60;;;;;;;;;;5033195;28;20232;-85
2023/08/11 08:54:12;;;;;;;7.47;4.97;;;;;;;;;;5032144;28;20033;-85
2023/08/11 08:56:38;;;;;;;6.65;5.07;;;;;;;;;;5011864;28;20033;-85
2023/08/11 08:59:04;;;;;;;7.82;5.47;;;;;;;;;;5032106;28;20041;-85
2023/08/11 09:01:29;;;;;;;7.53;5.07;;;;;;;;;;4996731;28;20028;-85
2023/08/11 09:03:55;;;;;;;9.55;5.80;;;;;;;;;;5012275;28;20029;-85
2023/08/11 09:06:21;;;;;;;10.27;5.45;;;;;;;;;;5031378;28;20021;-85
2023/08/11 09:08:46;;;;;;;8.73;5.90;;;;;;;;;;5032259;28;20033;-85
2023/08/11 09:11:12;;;;;;;6.90;4.68;;;;;;;;;;5032622;28;20030;-85
2023/08/11 09:13:38;;;;;;;8.82;4.90;;;;;;;;;;5032160;28;20029;-85
2023/08/11 09:16:03;;;;;;;6.93;4.88;;;;;;;;;;5032144;28;20076;-84
2023/08/11 09:18:29;;;;;;;7.75;5.05;;;;;;;;;;5033217;28;20065;-85
2023/08/11 09:20:54;;;;;;;8.25;5.18;;;;;;;;;;5015302;28;20030;-83
2023/08/11 09:23:20;;;;;;;7.38;5.38;;;;;;;;;;5031784;28;20037;-85
2023/08/11 09:25:45;;;;;;;8.40;5.32;;;;;;;;;;5031940;28;20025;-85
2023/08/11 09:28:11;;;;;;;7.18;5.25;;;;;;;;;;5015557;28;20041;-85
2023/08/11 09:30:36;;;;;;;7.07;4.50;;;;;;;;;;5032103;28;20116;-85
2023/08/11 09:33:03;;;;;;;6.90;4.38;;;;;;;;;;5031739;28;20125;-85
2023/08/11 09:35:29;;;;;;;6.82;4.78;;;;;;;;;;5032083;28;20040;-85
2023/08/11 09:37:54;;;;;;;6.47;4.80;;;;;;;;;;5014921;28;20059;-85
2023/08/11 09:40:23;;;;;;;6.43;4.75;;;;;;;;;;5031362;28;20488;-84
2023/08/11 09:42:48;;;;;;;9.77;4.78;;;;;;;;;;5022450;28;20046;-85
2023/08/11 09:45:14;;;;;;;8.88;5.47;;;;;;;;;;5029401;28;20155;-85
2023/08/11 09:48:05;;;;;;;6.65;4.25;;;;;;;;;;5031768;28;20052;-84
2023/08/11 09:50:31;;;;;;;7.55;4.88;;;;;;;;;;5030864;28;20029;-84
2023/08/11 09:52:56;;;;;;;8.65;5.25;;;;;;;;;;5030942;28;20052;-84
2023/08/11 09:55:23;;;;;;;8.32;4.65;;;;;;;;;;5015293;28;20484;-85
2023/08/11 09:57:48;;;;;;;9.85;5.38;;;;;;;;;;5012686;28;20037;-85
2023/08/11 10:00:15;;;;;;;10.65;5.53;;;;;;;;;;5019442;28;20517;-85
2023/08/11 10:02:44;;;;;;;9.48;4.93;;;;;;;;;;5030404;28;20022;-86
2023/08/11 10:05:10;;;;;;;7.47;4.90;;;;;;;;;;5014529;28;20049;-84
2023/08/11 10:07:39;;;;;;;8.23;5.03;;;;;;;;;;4998473;28;20041;-84
2023/08/11 10:10:12;;;;;;;9.93;4.85;;;;;;;;;;5031461;28;20091;-84
2023/08/11 10:12:40;;;;;;;9.70;5.53;;;;;;;;;;5030378;28;20037;-84
2023/08/11 10:15:06;;;;;;;7.18;4.70;;;;;;;;;;5030642;28;20057;-84
2023/08/11 10:17:32;;;;;;;9.68;5.28;;;;;;;;;;4996049;28;20591;-85
2023/08/11 10:20:04;;;;;;;9.18;4.70;;;;;;;;;;5031770;28;20148;-84
2023/08/11 10:22:29;;;;;;;7.55;5.22;;;;;;;;;;5030696;28;20037;-84
2023/08/11 10:24:55;;;;;;;6.57;4.70;;;;;;;;;;5029650;28;20021;-85
2023/08/11 10:27:20;;;;;;;8.43;4.90;;;;;;;;;;5030112;28;20523;-84
2023/08/11 10:29:46;;;;;;;9.35;4.82;;;;;;;;;;5011247;28;20397;-85
2023/08/11 10:32:11;;;;;;;6.75;4.68;;;;;;;;;;5009898;28;20033;-84
2023/08/11 10:34:37;;;;;;;7.80;4.70;;;;;;;;;;5030591;28;20101;-84
2023/08/11 10:37:02;;;;;;;6.22;4.68;;;;;;;;;;5030900;28;20575;-85
2023/08/11 10:39:28;;;;;;;6.15;4.75;;;;;;;;;;5027320;28;20638;-84
2023/08/11 10:41:54;;;;;;;7.93;4.55;;;;;;;;;;5029616;28;20504;-84
2023/08/11 10:44:20;;;;;;;6.45;5.15;;;;;;;;;;5013516;28;20112;-86
2023/08/11 10:46:46;;;;;;;7.80;4.93;;;;;;;;;;5029954;28;20127;-85
2023/08/11 10:49:14;;;;;;;10.05;4.93;;;;;;;;;;5029904;28;20033;-83
2023/08/11 10:51:40;;;;;;;16.73;4.97;;;;;;;;;;5030975;28;20036;-85
2023/08/11 10:54:06;;;;;;;8.55;5.05;;;;;;;;;;5030763;28;20014;-85
2023/08/11 10:56:34;;;;;;;9.43;5.50;;;;;;;;;;5031546;28;20033;-85
2023/08/11 10:59:03;;;;;;;10.35;4.63;;;;;;;;;;5013761;28;20436;-85
2023/08/11 11:01:29;;;;;;;7.20;5.30;;;;;;;;;;5029477;28;20052;-85
2023/08/11 11:03:54;;;;;;;7.40;5.20;;;;;;;;;;5030400;28;20514;-84
2023/08/11 11:06:21;;;;;;;9.07;5.07;;;;;;;;;;5014390;28;20063;-84
2023/08/11 11:08:46;;;;;;;7.20;5.22;;;;;;;;;;5030343;28;20039;-84
2023/08/11 11:11:11;;;;;;;7.10;4.90;;;;;;;;;;5031052;28;20030;-86
2023/08/11 11:13:37;;;;;;;7.45;5.30;;;;;;;;;;5029336;28;20041;-85
2023/08/11 11:16:02;;;;;;;6.05;4.90;;;;;;;;;;5035897;28;20045;-86
2023/08/11 11:18:28;;;;;;;5.70;4.45;;;;;;;;;;5030352;28;20081;-85
2023/08/11 11:20:53;;;;;;;7.05;4.30;;;;;;;;;;5030720;28;20025;-84
2023/08/11 11:23:19;;;;;;;7.57;4.40;;;;;;;;;;5030385;28;20045;-85
2023/08/11 11:25:44;;;;;;;8.63;5.20;;;;;;;;;;5031516;28;20065;-86
2023/08/11 11:28:11;;;;;;;7.85;4.70;;;;;;;;;;5030163;28;20440;-85
2023/08/11 11:30:37;;;;;;;9.07;4.57;;;;;;;;;;5030101;28;20030;-85
2023/08/11 11:33:02;;;;;;;8.45;4.70;;;;;;;;;;5032039;28;20032;-85
2023/08/11 11:35:28;;;;;;;6.55;4.63;;;;;;;;;;5031459;28;20029;-85
2023/08/11 11:37:53;;;;;;;9.32;4.90;;;;;;;;;;5043311;28;20021;-84
2023/08/11 11:40:19;;;;;;;12.45;5.68;;;;;;;;;;5030732;28;20052;-85
2023/08/11 11:42:46;;;;;;;8.20;4.80;;;;;;;;;;5030772;28;20053;-85
2023/08/11 11:45:12;;;;;;;9.35;4.57;;;;;;;;;;5029893;28;20033;-84
2023/08/11 11:47:37;;;;;;;9.20;4.40;;;;;;;;;;5030002;28;20404;-85
2023/08/11 11:50:04;;;;;;;7.65;4.28;;;;;;;;;;5013269;28;20037;-85
2023/08/11 11:52:30;;;;;;;7.38;4.45;;;;;;;;;;5031352;28;20029;-85
2023/08/11 11:54:56;;;;;;;7.82;4.40;;;;;;;;;;5029514;28;20409;-85
2023/08/11 11:57:21;;;;;;;7.10;3.95;;;;;;;;;;5010109;28;20037;-85
2023/08/11 11:59:47;;;;;;;8.55;3.97;;;;;;;;;;5029383;28;20044;-84
2023/08/11 12:02:13;;;;;;;4.80;3.30;;;;;;;;;;5029715;28;20037;-85
2023/08/11 12:04:40;;;;;;;7.53;3.47;;;;;;;;;;5032580;28;20386;-85
2023/08/11 12:07:07;;;;;;;5.85;3.70;;;;;;;;;;5017570;28;20036;-85
2023/08/11 12:09:48;;;;;;;6.10;3.35;;;;;;;;;;5016714;28;20029;-84
2023/08/11 12:12:14;;;;;;;5.35;3.65;;;;;;;;;;5017278;28;20377;-85
2023/08/11 12:14:39;;;;;;;5.13;3.30;;;;;;;;;;5033089;28;20028;-85
2023/08/11 12:17:05;;;;;;;7.03;3.60;;;;;;;;;;5013907;28;20465;-85
2023/08/11 12:19:30;;;;;;;9.48;3.30;;;;;;;;;;5015497;28;20026;-86
2023/08/11 12:21:56;;;;;;;7.63;3.20;;;;;;;;;;5033402;28;20057;-84
2023/08/11 12:24:22;;;;;;;6.78;3.33;;;;;;;;;;5033774;28;20481;-85
2023/08/11 12:26:48;;;;;;;5.88;3.30;;;;;;;;;;5033268;28;20433;-84
2023/08/11 12:29:13;;;;;;;4.07;2.92;;;;;;;;;;5024307;28;20026;-84
2023/08/11 12:31:39;;;;;;;5.95;2.92;;;;;;;;;;5016068;28;20492;-85
2023/08/11 12:34:05;;;;;;;6.88;3.15;;;;;;;;;;5033999;28;20052;-85
2023/08/11 12:36:30;;;;;;;7.00;3.25;;;;;;;;;;5032519;28;20411;-85
2023/08/11 12:38:56;;;;;;;5.13;3.20;;;;;;;;;;5032965;28;20060;-85
2023/08/11 12:41:21;;;;;;;7.22;2.85;;;;;;;;;;5034096;28;20036;-85
2023/08/11 12:43:47;;;;;;;9.68;3.20;;;;;;;;;;5033642;28;20057;-85
2023/08/11 12:46:12;;;;;;;4.45;2.65;;;;;;;;;;5036268;28;20496;-85
2023/08/11 12:48:38;;;;;;;6.47;2.65;;;;;;;;;;5032444;28;20037;-84
2023/08/11 12:51:03;;;;;;;5.30;2.90;;;;;;;;;;5031856;28;20040;-84
2023/08/11 12:53:29;;;;;;;5.93;3.00;;;;;;;;;;5032271;28;20045;-84
2023/08/11 12:55:54;;;;;;;5.00;2.60;;;;;;;;;;5015581;28;20135;-84
2023/08/11 12:58:20;;;;;;;6.00;2.63;;;;;;;;;;5015841;28;20026;-84
2023/08/11 13:00:45;;;;;;;5.53;2.65;;;;;;;;;;5033331;28;20095;-84
2023/08/11 13:03:12;;;;;;;5.97;2.95;;;;;;;;;;5031712;28;20037;-84
2023/08/11 13:05:37;;;;;;;7.40;3.15;;;;;;;;;;5033233;28;20071;-84
2023/08/11 13:08:03;;;;;;;6.32;3.13;;;;;;;;;;5031763;28;20056;-84
2023/08/11 13:10:28;;;;;;;7.68;3.45;;;;;;;;;;5031928;28;20091;-84
2023/08/11 13:12:54;;;;;;;11.23;3.25;;;;;;;;;;5033662;28;20101;-85
2023/08/11 13:15:19;;;;;;;6.78;3.15;;;;;;;;;;5040349;28;20083;-85
2023/08/11 13:17:45;;;;;;;8.13;3.00;;;;;;;;;;5031687;28;20378;-85
2023/08/11 13:20:12;;;;;;;9.20;3.47;;;;;;;;;;5031655;28;20034;-85
2023/08/11 13:22:37;;;;;;;6.38;3.15;;;;;;;;;;5032430;28;20041;-85
2023/08/11 13:25:03;;;;;;;8.60;3.20;;;;;;;;;;5031583;28;20044;-85
2023/08/11 13:27:28;;;;;;;8.48;3.10;;;;;;;;;;5015028;28;20080;-85
2023/08/11 13:29:54;;;;;;;5.45;2.78;;;;;;;;;;5033132;28;20038;-84
2023/08/11 13:32:19;;;;;;;8.00;3.20;;;;;;;;;;5014895;28;20044;-84
2023/08/11 13:34:45;;;;;;;8.13;3.10;;;;;;;;;;5015815;28;20064;-84
2023/08/11 13:37:10;;;;;;;8.73;3.10;;;;;;;;;;5030932;28;20074;-84
2023/08/11 13:39:36;;;;;;;4.70;3.08;;;;;;;;;;5015193;28;20485;-84
2023/08/11 13:42:01;;;;;;;8.32;3.15;;;;;;;;;;5011373;28;20053;-84
2023/08/11 13:44:27;;;;;;;7.88;3.65;;;;;;;;;;5026641;28;20033;-85
2023/08/11 13:46:52;;;;;;;8.52;3.13;;;;;;;;;;5036768;28;20021;-83
2023/08/11 13:49:18;;;;;;;8.75;3.05;;;;;;;;;;5032745;28;20094;-85
2023/08/11 13:51:43;;;;;;;7.40;3.00;;;;;;;;;;5032722;28;20018;-86
2023/08/11 13:54:09;;;;;;;6.15;3.42;;;;;;;;;;5023011;28;20049;-86
2023/08/11 13:56:34;;;;;;;10.32;3.40;;;;;;;;;;5030884;28;20021;-85
2023/08/11 13:59:00;;;;;;;8.65;3.30;;;;;;;;;;5012357;28;20536;-83
2023/08/11 14:01:26;;;;;;;7.65;3.20;;;;;;;;;;5030767;28;20070;-86
2023/08/11 14:03:51;;;;;;;5.32;3.08;;;;;;;;;;5011428;28;20065;-85
2023/08/11 14:06:17;;;;;;;6.47;3.20;;;;;;;;;;5014473;28;20045;-85
2023/08/11 14:08:43;;;;;;;6.93;2.90;;;;;;;;;;5031235;28;20046;-86
2023/08/11 14:11:09;;;;;;;5.95;2.72;;;;;;;;;;5014526;28;20029;-86
2023/08/11 14:13:34;;;;;;;6.15;2.90;;;;;;;;;;5032623;28;20040;-85
2023/08/11 14:16:00;;;;;;;5.38;3.05;;;;;;;;;;5014803;28;20028;-84
2023/08/11 14:18:25;;;;;;;6.80;3.35;;;;;;;;;;5031067;28;20528;-85
2023/08/11 14:20:51;;;;;;;7.63;3.67;;;;;;;;;;5027992;28;20409;-85
2023/08/11 14:23:16;;;;;;;6.47;3.28;;;;;;;;;;5014354;28;20037;-84
2023/08/11 14:25:44;;;;;;;6.07;3.50;;;;;;;;;;5030429;28;20030;-84
2023/08/11 14:28:10;;;;;;;6.20;3.40;;;;;;;;;;5029512;28;20091;-84
2023/08/11 14:30:35;;;;;;;10.00;3.90;;;;;;;;;;5027582;28;20021;-84
2023/08/11 14:33:01;;;;;;;10.60;4.45;;;;;;;;;;5031817;28;20029;-84
2023/08/11 14:35:26;;;;;;;10.15;4.82;;;;;;;;;;5014405;28;20021;-85
2023/08/11 14:37:53;;;;;;;7.82;4.13;;;;;;;;;;5031401;28;20057;-85